Time;durP1;ratioP1;P1;durP2;ratioP2;P2;SDS_P1;SDS_P2;PMS_P1;PMS_P2;Temp;Humidity;BMP_temperature;BMP_pressure;BME280_temperature;BME280_humidity;BME280_pressure;Samples;Min_cycle;Max_cycle;Signal;HPM_P1;HPM_P2
2021/01/02 00:00:08;;;;;;;39.40;19.57;;;4.90;93.20;;;;;;4402515;32;20168;-64
2021/01/02 00:03:11;;;;;;;34.13;17.67;;;5.00;93.20;;;;;;4403980;32;20226;-64
2021/01/02 00:05:45;;;;;;;35.37;19.67;;;5.00;93.20;;;;;;4409573;32;20177;-64
2021/01/02 00:08:20;;;;;;;40.63;20.37;;;5.00;93.20;;;;;;4401205;32;20148;-65
2021/01/02 00:11:06;;;;;;;36.27;18.90;;;5.00;93.20;;;;;;4403946;32;20151;-65
2021/01/02 00:13:44;;;;;;;41.67;20.30;;;5.00;93.20;;;;;;4411132;32;20175;-64
2021/01/02 00:16:54;;;;;;;38.33;18.73;;;5.00;93.20;;;;;;4411104;32;20250;-64
2021/01/02 00:19:43;;;;;;;40.10;19.57;;;5.00;93.20;;;;;;4354927;32;20156;-64
2021/01/02 00:22:17;;;;;;;36.37;18.37;;;5.10;93.20;;;;;;4351940;32;20246;-66
2021/01/02 00:24:55;;;;;;;42.13;21.33;;;5.10;93.20;;;;;;4356161;32;20235;-64
2021/01/02 00:27:32;;;;;;;37.60;19.90;;;5.00;93.20;;;;;;4356275;32;20527;-65
2021/01/02 00:30:16;;;;;;;42.53;20.87;;;5.10;93.10;;;;;;4358430;32;20304;-64
2021/01/02 00:33:00;;;;;;;35.23;19.67;;;5.10;93.00;;;;;;4355961;32;20172;-65
2021/01/02 00:35:31;;;;;;;38.07;19.63;;;5.10;93.00;;;;;;4357906;32;20163;-64
2021/01/02 00:38:08;;;;;;;35.70;19.60;;;5.10;93.10;;;;;;4347527;32;20157;-65
2021/01/02 00:40:37;;;;;;;39.83;20.53;;;5.20;92.90;;;;;;4356922;33;20226;-65
2021/01/02 00:43:17;;;;;;;38.90;20.70;;;5.20;92.90;;;;;;4355520;32;20260;-65
2021/01/02 00:45:44;;;;;;;40.77;21.13;;;5.20;92.70;;;;;;4356807;32;20648;-65
2021/01/02 00:48:12;;;;;;;41.33;21.57;;;5.20;92.70;;;;;;4355977;32;20218;-65
2021/01/02 00:50:46;;;;;;;43.60;21.60;;;5.20;92.80;;;;;;4349710;32;20236;-65
2021/01/02 00:53:42;;;;;;;46.73;23.20;;;5.20;92.80;;;;;;4355977;32;20168;-65
2021/01/02 00:56:36;;;;;;;40.70;20.77;;;5.20;92.60;;;;;;4395103;32;20174;-64
2021/01/02 00:59:49;;;;;;;47.70;23.20;;;5.10;92.70;;;;;;4418949;32;20255;-64
2021/01/02 01:03:00;;;;;;;44.77;22.20;;;5.10;92.70;;;;;;4416591;32;20170;-64
2021/01/02 01:05:49;;;;;;;43.30;22.47;;;5.10;92.70;;;;;;4347226;32;20232;-65
2021/01/02 01:08:25;;;;;;;47.90;23.30;;;5.10;92.70;;;;;;4351784;33;20638;-64
2021/01/02 01:10:57;;;;;;;43.47;23.27;;;5.10;92.80;;;;;;4364874;32;20542;-64
2021/01/02 01:13:26;;;;;;;41.97;23.60;;;5.10;92.80;;;;;;4349574;32;20183;-64
2021/01/02 01:15:56;;;;;;;36.73;20.70;;;5.10;92.70;;;;;;4357614;32;20224;-64
2021/01/02 01:18:51;;;;;;;44.67;23.83;;;5.20;92.70;;;;;;4357094;33;20177;-64
2021/01/02 01:21:34;;;;;;;;;;;;;;;;;;;;;
2021/01/02 01:24:34;;;;;;;49.17;25.53;;;5.00;92.50;;;;;;4351567;32;20180;-63
2021/01/02 01:27:17;;;;;;;49.03;25.70;;;5.00;92.60;;;;;;4357360;32;20172;-64
2021/01/02 01:30:04;;;;;;;46.53;23.93;;;4.90;92.60;;;;;;4354409;33;20188;-64
2021/01/02 01:32:59;;;;;;;41.80;23.87;;;4.90;92.80;;;;;;4357197;32;20532;-64
2021/01/02 01:35:27;;;;;;;45.77;24.10;;;4.90;92.80;;;;;;4356498;32;20153;-64
2021/01/02 01:37:56;;;;;;;48.77;24.70;;;4.90;92.90;;;;;;4359739;32;20214;-64
2021/01/02 01:40:25;;;;;;;51.53;27.03;;;4.90;92.80;;;;;;4366179;32;20612;-64
2021/01/02 01:43:03;;;;;;;52.70;25.67;;;5.00;92.80;;;;;;4412550;32;20203;-63
2021/01/02 01:46:10;;;;;;;46.30;24.77;;;4.90;92.80;;;;;;4420374;32;20162;-64
2021/01/02 01:48:55;;;;;;;45.97;23.57;;;5.00;92.70;;;;;;4422756;32;20253;-64
2021/01/02 01:52:00;;;;;;;44.93;24.87;;;4.90;92.60;;;;;;4420540;32;20223;-64
2021/01/02 01:54:48;;;;;;;42.20;24.37;;;5.00;92.60;;;;;;4417785;32;20178;-64
2021/01/02 01:57:27;;;;;;;45.93;25.23;;;4.90;92.60;;;;;;4411364;32;20211;-64
2021/01/02 02:00:18;;;;;;;46.73;24.90;;;4.90;92.60;;;;;;4415596;32;20182;-64
2021/01/02 02:03:02;;;;;;;47.97;25.83;;;4.90;92.70;;;;;;4417187;32;20216;-64
2021/01/02 02:05:51;;;;;;;42.77;24.67;;;4.90;92.50;;;;;;4421470;32;20620;-63
2021/01/02 02:08:32;;;;;;;42.10;23.50;;;4.90;92.50;;;;;;4419916;32;20193;-64
2021/01/02 02:14:13;;;;;;;42.37;23.63;;;4.90;92.60;;;;;;4414240;32;20176;-63
2021/01/02 02:16:48;;;;;;;43.13;24.30;;;4.90;92.60;;;;;;4413619;32;20187;-64
2021/01/02 02:19:40;;;;;;;42.43;23.80;;;4.90;92.50;;;;;;4417917;32;20258;-64
2021/01/02 02:22:21;;;;;;;46.70;24.63;;;5.00;92.60;;;;;;4416582;32;20213;-64
2021/01/02 02:25:02;;;;;;;41.03;22.30;;;4.90;92.50;;;;;;4422005;32;20206;-64
2021/01/02 02:27:40;;;;;;;45.10;24.30;;;4.90;92.50;;;;;;4417956;32;20151;-64
2021/01/02 02:30:18;;;;;;;43.33;22.60;;;4.90;92.50;;;;;;4421884;32;20170;-63
2021/01/02 02:32:48;;;;;;;44.47;24.77;;;4.90;92.50;;;;;;4419798;32;20214;-64
2021/01/02 02:35:31;;;;;;;48.73;25.30;;;4.80;92.50;;;;;;4421130;32;20240;-64
2021/01/02 02:38:12;;;;;;;45.10;25.10;;;4.90;92.50;;;;;;4413702;32;20162;-64
2021/01/02 02:40:49;;;;;;;39.73;23.77;;;4.80;92.50;;;;;;4418195;32;20162;-64
2021/01/02 02:43:21;;;;;;;43.73;25.77;;;4.80;92.60;;;;;;4410795;32;20170;-64
2021/01/02 02:46:01;;;;;;;46.53;26.53;;;4.80;92.50;;;;;;4421514;32;20237;-64
2021/01/02 02:48:32;;;;;;;44.97;24.87;;;4.90;92.60;;;;;;4416997;32;20187;-64
2021/01/02 02:51:09;;;;;;;49.47;26.97;;;4.90;92.50;;;;;;4417207;32;20169;-64
2021/01/02 02:53:38;;;;;;;46.93;25.53;;;4.90;92.40;;;;;;4420254;32;20285;-63
2021/01/02 02:56:11;;;;;;;50.47;26.90;;;4.90;92.40;;;;;;4416284;32;20630;-64
2021/01/02 02:58:37;;;;;;;44.87;24.93;;;4.90;92.40;;;;;;4407795;32;20164;-64
2021/01/02 03:01:04;;;;;;;49.33;26.80;;;5.00;92.20;;;;;;4421231;32;20219;-64
2021/01/02 03:03:30;;;;;;;47.53;27.10;;;5.00;92.20;;;;;;4416066;32;20639;-64
2021/01/02 03:06:00;;;;;;;51.77;28.37;;;5.00;92.20;;;;;;4421380;32;20201;-64
2021/01/02 03:08:33;;;;;;;45.10;26.70;;;4.90;92.20;;;;;;4422046;32;20608;-64
2021/01/02 03:11:09;;;;;;;49.97;26.80;;;4.90;92.10;;;;;;4420280;32;20651;-64
2021/01/02 03:13:46;;;;;;;47.60;25.77;;;4.80;92.20;;;;;;4420619;32;20178;-65
2021/01/02 03:16:18;;;;;;;44.93;27.77;;;4.80;92.30;;;;;;4408755;32;20171;-64
2021/01/02 03:18:51;;;;;;;49.73;28.77;;;4.80;92.30;;;;;;4410528;32;20197;-64
2021/01/02 03:21:25;;;;;;;47.33;28.73;;;4.80;92.30;;;;;;4398198;32;20226;-64
2021/01/02 03:23:53;;;;;;;45.07;27.23;;;4.70;92.40;;;;;;4394379;32;20184;-64
2021/01/02 03:26:22;;;;;;;46.97;27.80;;;4.60;92.50;;;;;;4412032;32;20479;-63
2021/01/02 03:28:59;;;;;;;50.27;28.70;;;4.60;92.60;;;;;;4403193;32;20234;-64
2021/01/02 03:31:30;;;;;;;48.37;28.87;;;4.60;92.60;;;;;;4403727;32;20630;-64
2021/01/02 03:34:04;;;;;;;51.37;30.17;;;4.60;92.70;;;;;;4411166;32;20640;-64
2021/01/02 03:36:38;;;;;;;53.00;29.77;;;4.60;92.60;;;;;;4402447;32;20640;-63
2021/01/02 03:39:11;;;;;;;45.23;27.83;;;4.60;92.50;;;;;;4412227;32;20208;-64
2021/01/02 03:41:47;;;;;;;50.97;30.20;;;4.60;92.60;;;;;;4414953;32;20155;-64
2021/01/02 03:44:23;;;;;;;54.17;31.83;;;4.60;92.60;;;;;;4401512;32;20586;-64
2021/01/02 03:46:49;;;;;;;53.67;31.50;;;4.60;92.60;;;;;;4407055;32;20160;-64
2021/01/02 03:49:15;;;;;;;56.50;32.00;;;4.60;92.60;;;;;;4408472;32;20215;-64
2021/01/02 03:51:59;;;;;;;59.63;32.57;;;4.50;92.60;;;;;;4414949;32;20470;-64
2021/01/02 03:54:38;;;;;;;59.87;33.63;;;4.50;92.80;;;;;;4416214;32;20341;-63
2021/01/02 03:57:07;;;;;;;51.73;29.57;;;4.50;92.80;;;;;;4403509;32;20325;-65
2021/01/02 03:59:36;;;;;;;60.47;32.50;;;4.50;92.90;;;;;;4403917;32;20206;-64
2021/01/02 04:02:08;;;;;;;58.93;33.20;;;4.50;92.90;;;;;;4405113;32;20620;-63
2021/01/02 04:04:42;;;;;;;55.07;30.70;;;4.60;92.90;;;;;;4398842;32;20218;-63
2021/01/02 04:07:11;;;;;;;60.40;32.97;;;4.60;92.80;;;;;;4393637;32;20159;-63
2021/01/02 04:09:44;;;;;;;54.10;30.50;;;4.60;92.70;;;;;;4404586;32;20667;-63
2021/01/02 04:12:13;;;;;;;53.17;30.63;;;4.60;92.80;;;;;;4411923;32;20169;-63
2021/01/02 04:14:48;;;;;;;61.43;31.43;;;4.60;92.70;;;;;;4406151;32;20211;-63
2021/01/02 04:17:14;;;;;;;58.83;30.97;;;4.60;92.70;;;;;;4408053;32;20640;-64
2021/01/02 04:19:43;;;;;;;55.60;31.57;;;4.60;92.70;;;;;;4416195;32;20297;-63
2021/01/02 04:22:10;;;;;;;56.13;31.73;;;4.50;92.60;;;;;;4419987;32;20159;-63
2021/01/02 04:24:48;;;;;;;55.63;32.07;;;4.50;92.60;;;;;;4420130;32;20198;-64
2021/01/02 04:27:17;;;;;;;58.27;32.37;;;4.40;92.60;;;;;;4416957;32;20443;-64
2021/01/02 04:29:45;;;;;;;51.57;29.80;;;4.30;92.70;;;;;;4416742;32;20158;-64
2021/01/02 04:32:15;;;;;;;55.80;31.23;;;4.50;92.80;;;;;;4421401;32;20163;-65
2021/01/02 04:34:43;;;;;;;56.43;30.20;;;4.40;92.80;;;;;;4420634;32;20291;-64
2021/01/02 04:37:11;;;;;;;50.50;30.97;;;4.50;92.80;;;;;;4416610;32;20254;-65
2021/01/02 04:39:37;;;;;;;47.63;29.33;;;4.50;92.70;;;;;;4418524;32;20652;-63
2021/01/02 04:42:05;;;;;;;47.83;30.33;;;4.50;92.60;;;;;;4418704;32;20172;-63
2021/01/02 04:44:50;;;;;;;47.30;28.30;;;4.50;92.60;;;;;;4416661;32;20550;-64
2021/01/02 04:47:23;;;;;;;52.17;29.40;;;4.50;92.60;;;;;;4408085;32;20176;-63
2021/01/02 04:49:53;;;;;;;53.17;33.00;;;4.50;92.40;;;;;;4410822;32;20159;-64
2021/01/02 04:52:25;;;;;;;47.53;28.77;;;4.50;92.40;;;;;;4419498;32;20168;-64
2021/01/02 04:54:57;;;;;;;43.40;27.93;;;4.30;92.50;;;;;;4417386;32;20498;-64
2021/01/02 04:57:36;;;;;;;48.50;28.33;;;4.30;92.80;;;;;;4405372;32;20652;-64
2021/01/02 05:00:14;;;;;;;48.40;29.50;;;4.40;92.70;;;;;;4414301;32;20588;-64
2021/01/02 05:02:44;;;;;;;47.20;28.37;;;4.40;92.60;;;;;;4414910;32;20584;-64
2021/01/02 05:05:27;;;;;;;44.83;30.37;;;4.40;92.60;;;;;;4407382;32;20190;-64
2021/01/02 05:07:58;;;;;;;46.60;28.23;;;4.30;92.60;;;;;;4406340;32;20619;-64
2021/01/02 05:10:27;;;;;;;46.20;27.23;;;4.30;92.60;;;;;;4412351;32;20248;-63
2021/01/02 05:13:12;;;;;;;53.50;30.00;;;4.30;92.70;;;;;;4419162;32;20215;-64
2021/01/02 05:15:46;;;;;;;50.33;29.77;;;4.20;92.80;;;;;;4413046;32;20216;-64
2021/01/02 05:18:20;;;;;;;54.17;30.13;;;4.20;92.90;;;;;;4415480;32;20155;-64
2021/01/02 05:20:52;;;;;;;57.30;32.00;;;4.10;92.90;;;;;;4407156;32;20156;-65
2021/01/02 05:23:29;;;;;;;47.37;29.87;;;4.10;93.00;;;;;;4408032;32;20155;-64
2021/01/02 05:26:09;;;;;;;54.90;30.97;;;4.20;93.00;;;;;;4403224;32;20621;-64
2021/01/02 05:28:36;;;;;;;51.63;30.87;;;4.20;93.00;;;;;;4402533;32;20167;-64
2021/01/02 05:31:21;;;;;;;48.70;28.10;;;4.20;93.00;;;;;;4407867;32;20240;-64
2021/01/02 05:34:06;;;;;;;48.93;28.13;;;4.20;93.00;;;;;;4390083;32;20160;-64
2021/01/02 05:36:35;;;;;;;52.33;30.10;;;4.20;93.00;;;;;;4403089;32;20197;-64
2021/01/02 05:39:01;;;;;;;52.33;29.33;;;4.30;93.00;;;;;;4401493;32;20218;-64
2021/01/02 05:41:51;;;;;;;48.87;29.07;;;4.40;93.00;;;;;;4392889;32;20208;-64
2021/01/02 05:44:21;;;;;;;48.07;28.43;;;4.40;92.90;;;;;;4391942;32;20175;-64
2021/01/02 05:46:52;;;;;;;49.00;28.83;;;4.40;92.80;;;;;;4406515;32;20188;-64
2021/01/02 05:49:42;;;;;;;48.07;27.17;;;4.50;92.70;;;;;;4403685;32;20301;-64
2021/01/02 05:52:14;;;;;;;46.37;28.10;;;4.50;92.60;;;;;;4409872;32;20549;-64
2021/01/02 05:55:01;;;;;;;57.73;29.00;;;4.50;92.70;;;;;;4409600;32;20447;-64
2021/01/02 05:57:33;;;;;;;44.17;27.00;;;4.50;92.70;;;;;;4398371;32;20190;-64
2021/01/02 06:00:11;;;;;;;50.50;27.67;;;4.50;92.60;;;;;;4412559;32;20222;-64
2021/01/02 06:02:41;;;;;;;49.53;28.40;;;4.50;92.60;;;;;;4399112;32;20151;-64
2021/01/02 06:05:20;;;;;;;49.47;27.57;;;4.50;92.50;;;;;;4401325;32;20227;-64
2021/01/02 06:07:52;;;;;;;49.10;28.33;;;4.50;92.50;;;;;;4409547;32;20671;-64
2021/01/02 06:10:33;;;;;;;53.13;29.00;;;4.50;92.60;;;;;;4398150;32;20517;-65
2021/01/02 06:13:03;;;;;;;44.13;27.03;;;4.50;92.50;;;;;;4417640;32;20185;-64
2021/01/02 06:15:43;;;;;;;55.23;31.73;;;4.50;92.50;;;;;;4406976;32;20175;-63
2021/01/02 06:18:10;;;;;;;50.47;31.03;;;4.50;92.50;;;;;;4399346;32;20216;-63
2021/01/02 06:20:47;;;;;;;54.43;31.40;;;4.50;92.50;;;;;;4416809;32;20584;-63
2021/01/02 06:23:21;;;;;;;56.50;28.83;;;4.50;92.50;;;;;;4408819;32;20198;-65
2021/01/02 06:25:56;;;;;;;43.00;26.73;;;4.50;92.30;;;;;;4406747;32;20447;-64
2021/01/02 06:28:28;;;;;;;46.60;27.10;;;4.50;92.30;;;;;;4413384;32;20168;-64
2021/01/02 06:31:01;;;;;;;54.20;29.17;;;4.50;92.40;;;;;;4419016;32;20250;-64
2021/01/02 06:33:30;;;;;;;47.70;27.57;;;4.50;92.40;;;;;;4409535;32;20170;-63
2021/01/02 06:35:57;;;;;;;49.30;26.50;;;4.50;92.50;;;;;;4405833;32;20614;-64
2021/01/02 06:38:30;;;;;;;54.37;28.63;;;4.60;92.50;;;;;;4409803;32;20562;-64
2021/01/02 06:41:00;;;;;;;62.20;30.77;;;4.50;92.50;;;;;;4417244;32;21413;-64
2021/01/02 06:43:41;;;;;;;52.13;27.73;;;4.60;92.50;;;;;;4407343;32;20159;-63
2021/01/02 06:46:16;;;;;;;69.13;33.10;;;4.50;92.50;;;;;;4402787;32;20176;-64
2021/01/02 06:51:58;;;;;;;52.90;29.00;;;4.40;92.60;;;;;;4400127;32;20582;-64
2021/01/02 06:54:31;;;;;;;61.20;31.03;;;4.40;92.70;;;;;;4408587;32;20253;-64
2021/01/02 06:57:08;;;;;;;56.23;30.53;;;4.50;92.70;;;;;;4412190;32;20476;-63
2021/01/02 06:59:54;;;;;;;56.47;31.30;;;4.50;92.70;;;;;;4409713;32;20239;-64
2021/01/02 07:02:31;;;;;;;74.47;33.13;;;4.50;92.60;;;;;;4416745;32;20154;-64
2021/01/02 07:05:07;;;;;;;71.43;34.33;;;4.50;92.70;;;;;;4408147;32;20165;-64
2021/01/02 07:07:44;;;;;;;64.97;31.43;;;4.50;92.70;;;;;;4418418;32;20156;-64
2021/01/02 07:10:26;;;;;;;60.13;31.23;;;4.50;92.70;;;;;;4415963;32;20530;-64
2021/01/02 07:13:16;;;;;;;57.53;31.50;;;4.50;92.60;;;;;;4406132;32;20179;-64
2021/01/02 07:15:45;;;;;;;65.27;32.57;;;4.50;92.60;;;;;;4057594;32;11224971;-65
2021/01/02 07:18:29;;;;;;;70.43;34.03;;;4.60;92.60;;;;;;4406790;32;20168;-66
2021/01/02 07:21:28;;;;;;;69.60;32.03;;;4.50;92.60;;;;;;4417268;32;20171;-68
2021/01/02 07:24:19;;;;;;;71.23;34.93;;;4.50;92.70;;;;;;4407060;32;20191;-63
2021/01/02 07:26:56;;;;;;;74.57;34.30;;;4.50;92.70;;;;;;4407003;32;20225;-64
2021/01/02 07:29:23;;;;;;;76.53;34.47;;;4.60;92.70;;;;;;4402797;32;20554;-65
2021/01/02 07:32:09;;;;;;;79.57;35.47;;;4.50;92.70;;;;;;4403669;32;20216;-64
2021/01/02 07:34:41;;;;;;;75.73;33.07;;;4.40;92.90;;;;;;4401672;32;20273;-64
2021/01/02 07:37:15;;;;;;;70.67;34.17;;;4.40;92.90;;;;;;4405626;32;20159;-64
2021/01/02 07:39:54;;;;;;;86.30;37.80;;;4.50;92.90;;;;;;4400165;32;20167;-67
2021/01/02 07:42:27;;;;;;;83.60;37.03;;;4.50;92.80;;;;;;4402444;32;20257;-67
2021/01/02 07:45:08;;;;;;;89.50;39.30;;;4.40;92.90;;;;;;4405982;32;20221;-64
2021/01/02 07:47:49;;;;;;;89.53;40.03;;;4.40;92.90;;;;;;4405181;32;20607;-63
2021/01/02 07:50:18;;;;;;;78.97;37.33;;;4.40;92.90;;;;;;4405162;32;20159;-67
2021/01/02 07:53:03;;;;;;;77.03;36.03;;;4.40;93.00;;;;;;4404398;32;20199;-65
2021/01/02 07:55:40;;;;;;;84.80;36.60;;;4.50;93.00;;;;;;4403021;32;20201;-64
2021/01/02 07:58:11;;;;;;;93.60;37.83;;;4.50;93.10;;;;;;4402814;32;20463;-64
2021/01/02 08:00:44;;;;;;;104.63;40.53;;;4.40;93.10;;;;;;4403245;32;20216;-65
2021/01/02 08:03:16;;;;;;;88.53;38.27;;;4.40;93.00;;;;;;4404446;32;20177;-66
2021/01/02 08:05:48;;;;;;;84.30;36.37;;;4.40;93.10;;;;;;4401517;32;20565;-63
2021/01/02 08:08:32;;;;;;;92.30;40.17;;;4.40;93.20;;;;;;4404248;32;20194;-66
2021/01/02 08:11:08;;;;;;;91.33;38.53;;;4.40;93.20;;;;;;4400554;32;20231;-67
2021/01/02 08:13:45;;;;;;;80.63;36.27;;;4.40;93.10;;;;;;4404124;32;20204;-66
2021/01/02 08:16:22;;;;;;;102.93;42.17;;;4.40;93.20;;;;;;4409788;32;20235;-62
2021/01/02 08:19:09;;;;;;;105.00;41.30;;;4.40;93.30;;;;;;4416396;32;20166;-63
2021/01/02 08:21:40;;;;;;;93.87;38.57;;;4.40;93.40;;;;;;4414973;32;20456;-63
2021/01/02 08:24:12;;;;;;;78.60;36.77;;;4.40;93.50;;;;;;4417292;32;20190;-64
2021/01/02 08:29:26;;;;;;;105.93;41.77;;;4.50;93.50;;;;;;4356374;32;20164;-65
2021/01/02 08:31:56;;;;;;;81.73;37.37;;;4.40;93.40;;;;;;4356919;33;20617;-66
2021/01/02 08:34:31;;;;;;;90.87;38.40;;;4.50;93.20;;;;;;4354696;32;20167;-64
2021/01/02 08:37:06;;;;;;;88.93;37.93;;;4.50;93.30;;;;;;4355060;32;20168;-65
2021/01/02 08:39:34;;;;;;;87.53;38.07;;;4.40;93.30;;;;;;4351250;33;20219;-64
2021/01/02 08:42:00;;;;;;;91.90;39.47;;;4.40;93.40;;;;;;4355362;33;20193;-66
2021/01/02 08:44:29;;;;;;;100.53;40.63;;;4.40;93.60;;;;;;4354351;33;20200;-63
2021/01/02 08:46:56;;;;;;;82.43;40.03;;;4.30;93.70;;;;;;4355595;32;20189;-65
2021/01/02 08:49:42;;;;;;;83.80;39.20;;;4.50;93.70;;;;;;4354494;32;20255;-65
2021/01/02 08:52:19;;;;;;;82.60;35.97;;;4.60;93.70;;;;;;4354650;32;20179;-64
2021/01/02 08:54:51;;;;;;;78.50;35.40;;;4.60;93.60;;;;;;4356553;32;20712;-64
2021/01/02 08:57:33;;;;;;;84.00;39.27;;;4.60;93.50;;;;;;4357425;32;20211;-64
2021/01/02 09:00:15;;;;;;;85.10;37.80;;;4.60;93.50;;;;;;4356815;32;20235;-67
2021/01/02 09:02:51;;;;;;;76.30;36.20;;;4.70;93.50;;;;;;4356105;33;20166;-64
2021/01/02 09:05:28;;;;;;;77.20;35.90;;;4.70;93.40;;;;;;4355767;33;20679;-65
2021/01/02 09:08:02;;;;;;;81.40;36.40;;;4.80;93.10;;;;;;4418109;32;20225;-64
2021/01/02 09:10:35;;;;;;;76.83;34.63;;;4.80;92.90;;;;;;4417665;32;20158;-64
2021/01/02 09:13:27;;;;;;;78.73;38.67;;;4.80;93.00;;;;;;4420112;32;20489;-65
2021/01/02 09:16:18;;;;;;;75.80;37.13;;;4.80;93.00;;;;;;4417680;32;20547;-65
2021/01/02 09:18:46;;;;;;;91.00;39.87;;;4.90;93.00;;;;;;4414503;32;20254;-66
2021/01/02 09:21:27;;;;;;;88.03;38.53;;;4.80;93.00;;;;;;4419115;32;20208;-65
2021/01/02 09:23:58;;;;;;;85.10;38.57;;;4.80;93.10;;;;;;4418791;32;20189;-65
2021/01/02 09:26:50;;;;;;;88.53;38.67;;;4.80;93.10;;;;;;4418741;32;20210;-66
2021/01/02 09:29:19;;;;;;;92.00;38.87;;;4.90;93.00;;;;;;4418555;32;20231;-65
2021/01/02 09:31:48;;;;;;;87.37;39.83;;;4.90;93.00;;;;;;4415164;32;20283;-66
2021/01/02 09:34:16;;;;;;;82.60;36.80;;;5.00;92.80;;;;;;4419215;32;20205;-64
2021/01/02 09:36:45;;;;;;;87.80;38.30;;;5.00;92.80;;;;;;4418259;32;20182;-64
2021/01/02 09:39:25;;;;;;;93.93;43.47;;;4.90;92.80;;;;;;4418528;32;20181;-69
2021/01/02 09:42:00;;;;;;;96.03;42.47;;;4.90;92.90;;;;;;4417448;32;20187;-64
2021/01/02 09:44:28;;;;;;;87.53;40.73;;;4.90;92.90;;;;;;4412205;32;20456;-66
2021/01/02 09:46:56;;;;;;;93.27;41.30;;;4.80;92.90;;;;;;4418687;32;20252;-67
2021/01/02 09:49:28;;;;;;;76.73;37.00;;;4.70;93.00;;;;;;4419219;32;20220;-63
2021/01/02 09:51:54;;;;;;;92.63;44.30;;;4.80;93.30;;;;;;4416483;32;20177;-65
2021/01/02 09:54:25;;;;;;;83.03;38.63;;;4.90;93.30;;;;;;4417619;32;20215;-66
2021/01/02 09:57:04;;;;;;;78.47;38.63;;;5.00;93.20;;;;;;4420503;32;20223;-64
2021/01/02 09:59:30;;;;;;;80.87;33.23;;;5.20;93.20;;;;;;4418197;32;20170;-65
2021/01/02 10:01:57;;;;;;;65.50;32.80;;;5.20;92.50;;;;;;4420889;32;20648;-64
2021/01/02 10:04:26;;;;;;;74.27;35.10;;;5.20;92.30;;;;;;4420660;32;20160;-65
2021/01/02 10:06:52;;;;;;;65.13;31.70;;;5.20;92.50;;;;;;4413428;32;20219;-68
2021/01/02 10:09:18;;;;;;;66.93;32.30;;;5.20;92.30;;;;;;4417477;32;20210;-68
2021/01/02 10:11:46;;;;;;;68.60;32.93;;;5.30;92.40;;;;;;4421208;32;20205;-64
2021/01/02 10:14:14;;;;;;;63.13;32.93;;;5.30;92.30;;;;;;4421479;32;20657;-68
2021/01/02 10:16:40;;;;;;;77.17;33.70;;;5.30;92.30;;;;;;4418072;32;20620;-65
2021/01/02 10:19:10;;;;;;;62.03;33.17;;;5.40;92.10;;;;;;4413201;32;20259;-65
2021/01/02 10:21:36;;;;;;;65.90;32.67;;;5.50;92.10;;;;;;4402987;32;20564;-65
2021/01/02 10:24:05;;;;;;;74.53;35.77;;;5.70;92.00;;;;;;4400488;32;20256;-65
2021/01/02 10:26:42;;;;;;;64.37;33.57;;;5.80;91.30;;;;;;4399124;32;20178;-65
2021/01/02 10:29:10;;;;;;;66.60;31.07;;;5.80;91.30;;;;;;4397973;32;20184;-67
2021/01/02 10:31:41;;;;;;;61.10;31.43;;;5.90;91.40;;;;;;4399021;32;20258;-66
2021/01/02 10:34:07;;;;;;;71.37;33.00;;;5.90;91.30;;;;;;4398312;32;20183;-69
2021/01/02 10:36:33;;;;;;;69.47;33.17;;;5.80;91.00;;;;;;4397115;32;20652;-68
2021/01/02 10:39:06;;;;;;;68.93;34.57;;;5.80;91.30;;;;;;4395960;32;20207;-65
2021/01/02 10:41:34;;;;;;;68.60;33.43;;;5.90;91.30;;;;;;4396703;32;20251;-70
2021/01/02 10:44:00;;;;;;;66.40;33.03;;;5.90;91.10;;;;;;4405894;32;20151;-65
2021/01/02 10:46:28;;;;;;;60.80;32.77;;;5.90;91.10;;;;;;4407369;32;20189;-65
2021/01/02 10:48:57;;;;;;;65.67;31.30;;;5.80;91.00;;;;;;4412214;32;20159;-65
2021/01/02 10:51:23;;;;;;;65.73;31.40;;;5.70;91.00;;;;;;4409689;32;20215;-66
2021/01/02 10:54:03;;;;;;;64.27;32.03;;;5.50;91.30;;;;;;4408225;32;20218;-67
2021/01/02 10:56:30;;;;;;;64.33;31.50;;;5.50;91.60;;;;;;4411545;32;20316;-68
2021/01/02 10:58:56;;;;;;;74.33;33.00;;;5.40;91.70;;;;;;4400564;32;20206;-66
2021/01/02 11:01:23;;;;;;;63.17;33.00;;;5.30;91.80;;;;;;4408398;32;20219;-64
2021/01/02 11:03:50;;;;;;;81.00;36.50;;;5.30;91.90;;;;;;4411212;32;20159;-66
2021/01/02 11:06:18;;;;;;;61.63;30.57;;;5.30;92.10;;;;;;4409653;32;20242;-65
2021/01/02 11:08:51;;;;;;;63.37;29.83;;;5.20;92.30;;;;;;4398602;32;20223;-67
2021/01/02 11:11:25;;;;;;;71.20;34.43;;;5.20;92.30;;;;;;4399053;32;20236;-65
2021/01/02 11:13:51;;;;;;;81.37;34.87;;;5.20;92.20;;;;;;4403891;32;20217;-64
2021/01/02 11:16:17;;;;;;;77.30;36.27;;;5.20;92.30;;;;;;4402466;32;20679;-66
2021/01/02 11:18:44;;;;;;;86.87;37.10;;;5.20;92.40;;;;;;4414930;32;20331;-65
2021/01/02 11:21:11;;;;;;;74.00;36.97;;;5.30;92.40;;;;;;4413256;32;20220;-65
2021/01/02 11:23:45;;;;;;;75.37;35.70;;;5.30;92.50;;;;;;4414535;32;20266;-66
2021/01/02 11:26:13;;;;;;;79.30;37.07;;;5.30;92.40;;;;;;4415660;32;20209;-66
2021/01/02 11:28:42;;;;;;;81.77;37.93;;;5.40;92.60;;;;;;4416863;32;20194;-65
2021/01/02 11:31:08;;;;;;;87.43;39.33;;;5.60;92.40;;;;;;4411483;32;20233;-65
2021/01/02 11:33:40;;;;;;;85.63;36.10;;;5.50;92.20;;;;;;4418636;32;20255;-67
2021/01/02 11:36:12;;;;;;;78.73;33.77;;;5.50;92.10;;;;;;4419266;32;20163;-67
2021/01/02 11:38:41;;;;;;;77.60;34.17;;;5.60;92.10;;;;;;4419267;32;20268;-67
2021/01/02 11:41:14;;;;;;;87.77;41.93;;;5.60;92.10;;;;;;4416170;32;20194;-64
2021/01/02 11:43:42;;;;;;;86.10;41.13;;;5.50;92.00;;;;;;4419391;32;20152;-67
2021/01/02 11:46:08;;;;;;;96.20;46.43;;;5.40;92.10;;;;;;4415772;32;20219;-67
2021/01/02 11:48:41;;;;;;;97.40;44.10;;;5.40;92.30;;;;;;4415197;32;20148;-69
2021/01/02 11:51:20;;;;;;;87.97;40.43;;;5.20;92.20;;;;;;4413284;32;20538;-65
2021/01/02 11:53:48;;;;;;;94.73;41.97;;;5.20;92.40;;;;;;4415050;32;20186;-66
2021/01/02 11:56:26;;;;;;;96.97;41.30;;;5.20;92.40;;;;;;4412259;32;20475;-66
2021/01/02 11:59:05;;;;;;;105.40;43.63;;;5.20;92.50;;;;;;4412345;32;20202;-67
2021/01/02 12:01:39;;;;;;;91.23;41.40;;;5.20;92.50;;;;;;4416512;32;20176;-66
2021/01/02 12:04:08;;;;;;;91.93;41.63;;;5.20;92.60;;;;;;4420055;32;20211;-65
2021/01/02 12:06:35;;;;;;;96.73;40.30;;;5.20;92.60;;;;;;4418322;32;20159;-66
2021/01/02 12:09:04;;;;;;;83.30;39.40;;;5.20;92.70;;;;;;4417596;32;20294;-66
2021/01/02 12:11:36;;;;;;;96.90;43.00;;;5.40;92.50;;;;;;4418149;32;20278;-66
2021/01/02 12:14:04;;;;;;;84.17;40.43;;;5.40;92.30;;;;;;4418267;32;20219;-67
2021/01/02 12:16:32;;;;;;;79.33;38.37;;;5.50;92.00;;;;;;4411237;32;20159;-66
2021/01/02 12:18:59;;;;;;;97.47;40.67;;;5.50;91.80;;;;;;4417183;32;20224;-65
2021/01/02 12:21:30;;;;;;;79.17;38.60;;;5.60;92.10;;;;;;4415979;32;20198;-66
2021/01/02 12:23:59;;;;;;;86.27;40.00;;;5.50;92.10;;;;;;4419556;32;20187;-65
2021/01/02 12:26:28;;;;;;;93.10;41.00;;;5.50;91.90;;;;;;4419174;32;20242;-66
2021/01/02 12:28:59;;;;;;;85.43;39.90;;;5.40;92.00;;;;;;4413818;32;20464;-66
2021/01/02 12:31:28;;;;;;;94.80;42.40;;;5.40;92.00;;;;;;4413957;32;20646;-70
2021/01/02 12:33:55;;;;;;;103.40;43.17;;;5.40;92.10;;;;;;4413433;32;20540;-66
2021/01/02 12:36:33;;;;;;;98.70;44.43;;;5.40;92.00;;;;;;4420574;32;20179;-65
2021/01/02 12:39:00;;;;;;;100.73;43.53;;;5.40;92.10;;;;;;4417337;32;20230;-65
2021/01/02 12:41:29;;;;;;;107.80;44.30;;;5.30;92.30;;;;;;4418974;32;20264;-65
2021/01/02 12:43:57;;;;;;;98.63;46.17;;;5.40;92.40;;;;;;4419117;32;20271;-65
2021/01/02 12:46:35;;;;;;;95.17;43.50;;;5.50;92.30;;;;;;4417211;32;20341;-66
2021/01/02 12:49:06;;;;;;;102.80;42.50;;;5.50;92.10;;;;;;4412681;32;20224;-66
2021/01/02 12:51:34;;;;;;;109.93;46.40;;;5.40;92.00;;;;;;4416552;32;20156;-68
2021/01/02 12:54:01;;;;;;;95.50;44.27;;;5.30;92.20;;;;;;4418962;32;20657;-65
2021/01/02 12:56:28;;;;;;;113.50;46.77;;;5.30;92.40;;;;;;4417969;32;20214;-68
2021/01/02 12:58:54;;;;;;;90.77;42.73;;;5.30;92.60;;;;;;4419363;32;20214;-66
2021/01/02 13:01:21;;;;;;;94.07;43.40;;;5.40;92.50;;;;;;4418472;32;20167;-66
2021/01/02 13:03:47;;;;;;;101.73;42.67;;;5.40;92.20;;;;;;4419023;32;20156;-66
2021/01/02 13:06:14;;;;;;;97.93;44.77;;;5.40;92.30;;;;;;4417893;32;20529;-67
2021/01/02 13:08:42;;;;;;;107.03;46.63;;;5.50;92.30;;;;;;4418331;32;20440;-68
2021/01/02 13:11:09;;;;;;;108.80;45.13;;;5.50;91.90;;;;;;4417779;32;20210;-66
2021/01/02 13:13:44;;;;;;;102.23;43.63;;;5.40;92.10;;;;;;4414244;32;20214;-65
2021/01/02 13:16:18;;;;;;;105.17;46.67;;;5.50;92.20;;;;;;4413850;32;20154;-66
2021/01/02 13:18:49;;;;;;;95.00;43.03;;;5.60;92.20;;;;;;4417990;32;20241;-67
2021/01/02 13:21:15;;;;;;;102.90;44.90;;;5.70;92.10;;;;;;4418112;32;20183;-65
2021/01/02 13:23:43;;;;;;;101.97;44.23;;;5.70;91.90;;;;;;4416993;32;20232;-65